Time;durP1;ratioP1;P1;durP2;ratioP2;P2;SDS_P1;SDS_P2;PMS_P1;PMS_P2;Temp;Humidity;BMP_temperature;BMP_pressure;BME280_temperature;BME280_humidity;BME280_pressure;Samples;Min_cycle;Max_cycle;Signal;HPM_P1;HPM_P2
2020/12/13 00:00:29;;;;;;;171.18;44.13;;;1.10;99.90;;;;;;5032139;28;20022;-76
2020/12/13 00:02:55;;;;;;;220.23;51.67;;;1.10;99.90;;;;;;5032064;28;20022;-77
2020/12/13 00:05:21;;;;;;;219.50;53.72;;;1.10;99.90;;;;;;5032133;28;20025;-77
2020/12/13 00:07:48;;;;;;;206.52;47.92;;;1.10;99.90;;;;;;5032310;28;20037;-77
2020/12/13 00:10:14;;;;;;;190.77;48.25;;;1.10;99.90;;;;;;5031840;28;20464;-77
2020/12/13 00:12:40;;;;;;;223.15;53.95;;;1.10;99.90;;;;;;5032275;28;20029;-76
2020/12/13 00:15:06;;;;;;;210.77;49.35;;;1.10;99.90;;;;;;5032230;28;20048;-75
2020/12/13 00:17:31;;;;;;;202.40;49.20;;;1.10;99.90;;;;;;5014278;28;20360;-76
2020/12/13 00:19:57;;;;;;;244.02;55.22;;;1.10;99.90;;;;;;5031776;28;20027;-77
2020/12/13 00:22:23;;;;;;;174.45;48.00;;;1.10;99.90;;;;;;5031737;28;20460;-75
2020/12/13 00:24:49;;;;;;;225.95;52.17;;;1.10;99.90;;;;;;5032143;28;20049;-76
2020/12/13 00:27:15;;;;;;;187.00;50.35;;;1.10;99.90;;;;;;5034495;28;20048;-76
2020/12/13 00:29:41;;;;;;;168.43;45.45;;;1.20;99.90;;;;;;5032063;28;20030;-76
2020/12/13 00:32:09;;;;;;;157.82;42.85;;;1.20;99.90;;;;;;5032628;28;19999;-75
2020/12/13 00:34:35;;;;;;;179.13;47.22;;;1.20;99.90;;;;;;5015046;28;20028;-76
2020/12/13 00:37:01;;;;;;;196.27;51.15;;;1.20;99.90;;;;;;5033049;28;20014;-78
2020/12/13 00:39:27;;;;;;;203.55;53.42;;;1.10;99.90;;;;;;5015466;28;20080;-77
2020/12/13 00:41:55;;;;;;;171.88;48.97;;;1.20;99.90;;;;;;5037111;28;20096;-76
2020/12/13 00:44:21;;;;;;;184.20;52.03;;;1.10;99.90;;;;;;5018998;28;20072;-77
2020/12/13 00:46:48;;;;;;;170.27;48.30;;;1.20;99.90;;;;;;5037813;28;20091;-78
2020/12/13 00:49:15;;;;;;;191.45;54.05;;;1.20;99.90;;;;;;5036289;28;20044;-77
2020/12/13 00:51:41;;;;;;;181.68;52.05;;;1.20;99.90;;;;;;5036692;28;20029;-77
2020/12/13 00:54:07;;;;;;;171.23;51.30;;;1.20;99.90;;;;;;5036063;28;20079;-76
2020/12/13 00:56:34;;;;;;;151.27;48.72;;;1.30;99.90;;;;;;5018238;28;20422;-76
2020/12/13 00:59:00;;;;;;;145.73;47.63;;;1.30;99.90;;;;;;5036373;28;20022;-76
2020/12/13 01:01:26;;;;;;;151.15;47.10;;;1.30;99.90;;;;;;5036380;28;20033;-76
2020/12/13 01:03:52;;;;;;;150.38;48.97;;;1.30;99.90;;;;;;5036383;28;20029;-76
2020/12/13 01:06:24;;;;;;;161.77;52.55;;;1.30;99.90;;;;;;5036011;28;20112;-75
2020/12/13 01:08:51;;;;;;;143.82;44.63;;;1.30;99.90;;;;;;5035441;28;20546;-76
2020/12/13 01:11:25;;;;;;;145.02;46.63;;;1.30;99.90;;;;;;5017128;28;20029;-76
2020/12/13 01:13:51;;;;;;;144.57;47.25;;;1.30;99.90;;;;;;5036585;28;20018;-76
2020/12/13 01:16:18;;;;;;;147.75;49.28;;;1.40;99.90;;;;;;5036244;28;20065;-76
2020/12/13 01:18:44;;;;;;;139.32;45.25;;;1.40;99.90;;;;;;5036223;28;20075;-75
2020/12/13 01:21:20;;;;;;;149.98;50.92;;;1.40;99.90;;;;;;5035962;28;20487;-74
2020/12/13 01:23:46;;;;;;;136.18;47.55;;;1.40;99.90;;;;;;5018121;28;20029;-76
2020/12/13 01:26:13;;;;;;;130.00;44.63;;;1.30;99.90;;;;;;5035943;28;20057;-76
2020/12/13 01:28:40;;;;;;;131.02;44.17;;;1.40;99.90;;;;;;5018385;28;20032;-76
2020/12/13 01:31:06;;;;;;;157.13;49.58;;;1.40;99.90;;;;;;5035784;28;20029;-76
2020/12/13 01:33:32;;;;;;;138.57;46.65;;;1.40;99.90;;;;;;5036067;28;20674;-76
2020/12/13 01:35:58;;;;;;;117.88;41.92;;;1.40;99.90;;;;;;5035807;28;20803;-76
2020/12/13 01:38:24;;;;;;;162.82;50.00;;;1.40;99.90;;;;;;5035604;28;20025;-76
2020/12/13 01:40:56;;;;;;;146.13;47.10;;;1.40;99.90;;;;;;5035749;28;20431;-76
2020/12/13 01:43:21;;;;;;;157.68;49.78;;;1.40;99.90;;;;;;5035334;28;20510;-76
2020/12/13 01:45:48;;;;;;;161.20;49.92;;;1.40;99.90;;;;;;5034852;28;20061;-75
2020/12/13 01:48:14;;;;;;;158.27;50.22;;;1.30;99.90;;;;;;5017006;28;20365;-76
2020/12/13 01:53:17;;;;;;;153.55;45.63;;;1.40;99.90;;;;;;5033823;28;20428;-76
2020/12/13 01:55:47;;;;;;;169.48;48.28;;;1.40;99.90;;;;;;5034216;28;20446;-77
2020/12/13 01:58:18;;;;;;;158.32;50.10;;;1.40;99.90;;;;;;5034057;28;20026;-76
2020/12/13 02:00:47;;;;;;;158.23;48.85;;;1.40;99.90;;;;;;5034073;28;20033;-76
2020/12/13 02:03:19;;;;;;;175.60;52.03;;;1.50;99.90;;;;;;5033994;28;20025;-76
2020/12/13 02:05:55;;;;;;;189.15;53.22;;;1.50;99.90;;;;;;5016379;28;20041;-75
2020/12/13 02:08:23;;;;;;;196.50;53.75;;;1.40;99.90;;;;;;5034053;28;20040;-77
2020/12/13 02:10:50;;;;;;;167.90;48.90;;;1.50;99.90;;;;;;5033802;28;20053;-77
2020/12/13 02:13:16;;;;;;;201.98;58.90;;;1.50;99.90;;;;;;5034149;28;20032;-75
2020/12/13 02:15:42;;;;;;;200.70;58.60;;;1.50;99.90;;;;;;5016243;28;20026;-76
2020/12/13 02:18:07;;;;;;;242.30;62.65;;;1.50;99.90;;;;;;5033653;28;20029;-76
2020/12/13 02:20:33;;;;;;;215.88;57.88;;;1.50;99.90;;;;;;5033742;28;20468;-77
2020/12/13 02:23:01;;;;;;;206.98;60.60;;;1.50;99.90;;;;;;5033484;28;20040;-76
2020/12/13 02:25:27;;;;;;;209.80;57.75;;;1.40;99.90;;;;;;5033475;28;20209;-75
2020/12/13 02:27:52;;;;;;;191.60;55.85;;;1.50;99.90;;;;;;5033622;28;20065;-76
2020/12/13 02:30:18;;;;;;;217.07;61.60;;;1.50;99.90;;;;;;5016008;28;20081;-76
2020/12/13 02:32:44;;;;;;;186.27;52.97;;;1.50;99.90;;;;;;5033486;28;20017;-76
2020/12/13 02:35:10;;;;;;;185.52;54.42;;;1.50;99.90;;;;;;5033386;28;20049;-75
2020/12/13 02:37:36;;;;;;;193.63;56.97;;;1.50;99.90;;;;;;5033183;28;20025;-75
2020/12/13 02:40:03;;;;;;;178.80;51.88;;;1.50;99.90;;;;;;5015730;28;20063;-77
2020/12/13 02:42:29;;;;;;;180.05;53.35;;;1.50;99.90;;;;;;5033167;28;20151;-76
2020/12/13 02:44:55;;;;;;;185.80;54.22;;;1.50;99.90;;;;;;5015765;28;20148;-76
2020/12/13 02:47:20;;;;;;;175.65;47.53;;;1.50;99.90;;;;;;5033379;28;20387;-76
2020/12/13 02:49:46;;;;;;;146.80;43.50;;;1.50;99.90;;;;;;5015636;28;20029;-76
2020/12/13 02:52:16;;;;;;;119.05;37.47;;;1.50;99.90;;;;;;5033100;28;20026;-76
2020/12/13 02:54:42;;;;;;;149.20;45.45;;;1.50;99.90;;;;;;5033045;28;20028;-76
2020/12/13 02:57:07;;;;;;;151.70;43.88;;;1.50;99.90;;;;;;5032973;28;20100;-75
2020/12/13 02:59:33;;;;;;;160.32;45.20;;;1.50;99.90;;;;;;5015360;28;20017;-76
2020/12/13 03:01:58;;;;;;;148.85;43.28;;;1.50;99.90;;;;;;5032900;28;20184;-76
2020/12/13 03:04:24;;;;;;;132.50;41.70;;;1.50;99.90;;;;;;5032939;28;20029;-76
2020/12/13 03:06:50;;;;;;;124.65;40.25;;;1.50;99.90;;;;;;5015035;28;20041;-75
2020/12/13 03:09:15;;;;;;;124.35;37.58;;;1.50;99.90;;;;;;5032768;28;20405;-76
2020/12/13 03:11:41;;;;;;;136.13;40.08;;;1.50;99.90;;;;;;5032546;28;20079;-76
2020/12/13 03:14:07;;;;;;;145.23;43.25;;;1.50;99.90;;;;;;5032766;28;20022;-77
2020/12/13 03:16:33;;;;;;;137.10;40.45;;;1.50;99.90;;;;;;5032668;28;20080;-75
2020/12/13 03:19:01;;;;;;;122.28;38.30;;;1.50;99.90;;;;;;5035894;28;20025;-76
2020/12/13 03:21:27;;;;;;;136.48;40.03;;;1.50;99.90;;;;;;5017115;28;20025;-76
2020/12/13 03:23:53;;;;;;;132.82;42.75;;;1.50;99.90;;;;;;5045196;28;20143;-80
2020/12/13 03:26:18;;;;;;;140.38;40.90;;;1.50;99.90;;;;;;5046364;28;20511;-80
2020/12/13 03:28:44;;;;;;;136.68;40.38;;;1.40;99.90;;;;;;5041433;28;20025;-80
2020/12/13 03:31:10;;;;;;;133.55;38.53;;;1.50;99.90;;;;;;5016532;28;20030;-77
2020/12/13 03:33:36;;;;;;;135.93;41.10;;;1.50;99.90;;;;;;5032193;28;20374;-76
2020/12/13 03:36:02;;;;;;;132.40;42.88;;;1.50;99.90;;;;;;5014488;28;20029;-77
2020/12/13 03:38:28;;;;;;;134.73;42.03;;;1.50;99.90;;;;;;5032454;28;20141;-77
2020/12/13 03:40:54;;;;;;;122.53;39.78;;;1.50;99.90;;;;;;5032442;28;20108;-77
2020/12/13 03:43:19;;;;;;;126.28;39.08;;;1.50;99.90;;;;;;5032328;28;20064;-76
2020/12/13 03:45:45;;;;;;;119.80;39.55;;;1.50;99.90;;;;;;5014450;28;20033;-77
2020/12/13 03:48:11;;;;;;;125.65;37.83;;;1.50;99.90;;;;;;5032107;28;20491;-77
2020/12/13 03:50:39;;;;;;;127.38;37.10;;;1.50;99.90;;;;;;5033187;28;20431;-81
2020/12/13 03:53:10;;;;;;;106.63;33.42;;;1.50;99.90;;;;;;5033521;28;20029;-81
2020/12/13 03:55:36;;;;;;;134.88;37.30;;;1.50;99.90;;;;;;5015426;28;20057;-81
2020/12/13 03:58:03;;;;;;;134.75;39.50;;;1.50;99.90;;;;;;5033303;28;20521;-81
2020/12/13 04:00:29;;;;;;;111.95;36.33;;;1.50;99.90;;;;;;5033418;28;20037;-81
2020/12/13 04:02:55;;;;;;;117.00;35.08;;;1.50;99.90;;;;;;5033405;28;20025;-81
2020/12/13 04:05:22;;;;;;;131.43;37.60;;;1.50;99.90;;;;;;5015545;28;20040;-81
2020/12/13 04:07:48;;;;;;;131.98;38.17;;;1.50;99.90;;;;;;5015534;28;20037;-81
2020/12/13 04:10:14;;;;;;;143.48;42.40;;;1.50;99.90;;;;;;5032953;28;20036;-76
2020/12/13 04:12:40;;;;;;;149.00;43.13;;;1.50;99.90;;;;;;5031956;28;20471;-76
2020/12/13 04:15:05;;;;;;;111.97;31.77;;;1.50;99.90;;;;;;5018904;28;20083;-76
2020/12/13 04:17:31;;;;;;;117.47;35.65;;;1.50;99.90;;;;;;5038658;28;20025;-77
2020/12/13 04:19:57;;;;;;;135.95;39.65;;;1.50;99.90;;;;;;5038490;28;20384;-76
2020/12/13 04:22:22;;;;;;;131.00;37.95;;;1.50;99.90;;;;;;5038174;28;20018;-76
2020/12/13 04:24:48;;;;;;;120.32;37.80;;;1.50;99.90;;;;;;5038745;28;20046;-77
2020/12/13 04:27:15;;;;;;;130.90;38.17;;;1.50;99.90;;;;;;5039019;28;20407;-76
2020/12/13 04:29:40;;;;;;;123.00;37.80;;;1.50;99.90;;;;;;5038850;28;20030;-76
2020/12/13 04:32:07;;;;;;;117.43;36.13;;;1.50;99.90;;;;;;5038465;28;20029;-76
2020/12/13 04:34:33;;;;;;;130.52;39.78;;;1.50;99.90;;;;;;5038872;28;20014;-76
2020/12/13 04:36:59;;;;;;;121.43;37.55;;;1.50;99.90;;;;;;5038665;28;20026;-76
2020/12/13 04:39:25;;;;;;;107.18;35.63;;;1.50;99.90;;;;;;5038141;28;20064;-77
2020/12/13 04:41:51;;;;;;;111.88;37.95;;;1.50;99.90;;;;;;5038548;28;20109;-77
2020/12/13 04:44:20;;;;;;;124.00;38.05;;;1.50;99.90;;;;;;5038889;28;20056;-77
2020/12/13 04:46:46;;;;;;;128.82;40.45;;;1.50;99.90;;;;;;5038781;28;20029;-77
2020/12/13 04:49:13;;;;;;;159.18;44.28;;;1.50;99.90;;;;;;5038750;28;20468;-76
2020/12/13 04:51:42;;;;;;;131.43;39.22;;;1.50;99.90;;;;;;5038591;28;20083;-76
2020/12/13 04:54:08;;;;;;;156.15;44.35;;;1.50;99.90;;;;;;5038549;28;20018;-76
2020/12/13 04:56:37;;;;;;;175.68;46.63;;;1.50;99.90;;;;;;5038707;28;20084;-76
2020/12/13 04:59:04;;;;;;;166.25;46.78;;;1.50;99.90;;;;;;5038543;28;20092;-76
2020/12/13 05:01:30;;;;;;;166.05;43.28;;;1.50;99.90;;;;;;5038086;28;20029;-76
2020/12/13 05:03:57;;;;;;;161.93;44.25;;;1.50;99.90;;;;;;5038971;28;20121;-76
2020/12/13 05:06:25;;;;;;;160.35;43.67;;;1.50;99.90;;;;;;5038592;28;20049;-76
2020/12/13 05:08:52;;;;;;;192.63;51.10;;;1.50;99.90;;;;;;5038383;28;20108;-76
2020/12/13 05:11:17;;;;;;;210.63;56.13;;;1.50;99.90;;;;;;5037951;28;20057;-75
2020/12/13 05:13:43;;;;;;;193.10;50.08;;;1.50;99.90;;;;;;5038344;28;20064;-77
2020/12/13 05:16:10;;;;;;;212.52;52.70;;;1.50;99.90;;;;;;5038133;28;20417;-76
2020/12/13 05:18:42;;;;;;;180.23;50.83;;;1.50;99.90;;;;;;5040893;28;20025;-83
2020/12/13 05:21:08;;;;;;;171.90;48.88;;;1.50;99.90;;;;;;5040224;28;20032;-83
2020/12/13 05:23:34;;;;;;;173.00;48.22;;;1.50;99.90;;;;;;5040568;28;20112;-83
2020/12/13 05:26:00;;;;;;;177.27;46.83;;;1.50;99.90;;;;;;5037473;28;20049;-82
2020/12/13 05:28:26;;;;;;;168.85;50.38;;;1.50;99.90;;;;;;5019566;28;20133;-81
2020/12/13 05:30:54;;;;;;;186.20;53.00;;;1.50;99.90;;;;;;5037300;28;20083;-82
2020/12/13 05:33:31;;;;;;;173.88;51.95;;;1.50;99.90;;;;;;5037567;28;20025;-75
2020/12/13 05:36:00;;;;;;;149.90;44.70;;;1.50;99.90;;;;;;5034806;28;20164;-75
2020/12/13 05:38:34;;;;;;;142.75;45.15;;;1.60;99.90;;;;;;5034577;28;20029;-77
2020/12/13 05:41:01;;;;;;;150.00;46.05;;;1.50;99.90;;;;;;5034582;28;20479;-78
2020/12/13 05:43:30;;;;;;;152.85;45.03;;;1.50;99.90;;;;;;5035001;28;20388;-77
2020/12/13 05:53:42;;;;;;;198.63;50.25;;;1.50;99.90;;;;;;5035821;28;20033;-83
2020/12/13 05:56:09;;;;;;;176.23;49.95;;;1.50;99.90;;;;;;5035723;28;20022;-83
2020/12/13 05:58:35;;;;;;;186.02;51.47;;;1.50;99.90;;;;;;5035845;28;20036;-82
2020/12/13 06:01:04;;;;;;;199.40;51.88;;;1.50;99.90;;;;;;5035726;28;20032;-76
2020/12/13 06:03:39;;;;;;;196.73;51.90;;;1.50;99.90;;;;;;5034753;28;20387;-82
2020/12/13 06:06:10;;;;;;;196.32;51.38;;;1.50;99.90;;;;;;5035573;28;20436;-81
2020/12/13 06:08:59;;;;;;;202.23;54.50;;;1.50;99.90;;;;;;5035431;28;20471;-83
2020/12/13 06:11:37;;;;;;;211.38;55.20;;;1.50;99.90;;;;;;5035720;28;20044;-82
2020/12/13 06:14:15;;;;;;;187.27;50.00;;;1.50;99.90;;;;;;5035767;28;20026;-82
2020/12/13 06:16:41;;;;;;;231.27;56.25;;;1.40;99.90;;;;;;5038501;28;20033;-81
2020/12/13 06:19:11;;;;;;;224.15;56.88;;;1.40;99.90;;;;;;5058409;28;20115;-81
2020/12/13 06:21:39;;;;;;;225.73;55.65;;;1.40;99.90;;;;;;5057775;28;20109;-81
2020/12/13 06:24:07;;;;;;;210.02;53.42;;;1.40;99.90;;;;;;5057935;28;20132;-81
2020/12/13 06:26:34;;;;;;;218.48;55.85;;;1.40;99.90;;;;;;5056767;28;20064;-81
2020/12/13 06:29:00;;;;;;;229.27;55.22;;;1.40;99.90;;;;;;5055104;28;20025;-82
2020/12/13 06:31:26;;;;;;;223.43;51.60;;;1.40;99.90;;;;;;5055068;28;20483;-82
2020/12/13 06:33:51;;;;;;;200.95;49.33;;;1.40;99.90;;;;;;5055349;28;20064;-80
2020/12/13 06:36:23;;;;;;;220.38;52.67;;;1.40;99.90;;;;;;5055087;28;20029;-82
2020/12/13 06:38:52;;;;;;;257.00;58.75;;;1.40;99.90;;;;;;5054190;28;20029;-83
2020/12/13 06:41:31;;;;;;;241.75;55.42;;;1.40;99.90;;;;;;5054699;28;20075;-82
2020/12/13 06:44:01;;;;;;;250.73;54.38;;;1.50;99.90;;;;;;5055021;28;20092;-82
2020/12/13 06:46:29;;;;;;;232.40;57.90;;;1.50;99.90;;;;;;5043247;28;20116;-83
2020/12/13 06:48:55;;;;;;;241.27;52.95;;;1.40;99.90;;;;;;5059825;28;20502;-82
2020/12/13 06:51:29;;;;;;;251.85;57.47;;;1.50;99.90;;;;;;5059631;28;20028;-83
2020/12/13 06:53:55;;;;;;;251.75;52.10;;;1.50;99.90;;;;;;5056565;28;20021;-83
2020/12/13 06:56:21;;;;;;;188.13;50.05;;;1.50;99.90;;;;;;5054781;28;20025;-82
2020/12/13 06:58:59;;;;;;;229.48;51.70;;;1.40;99.90;;;;;;5054439;28;20349;-82
2020/12/13 07:01:27;;;;;;;202.60;51.17;;;1.40;99.90;;;;;;5054378;28;20024;-82
2020/12/13 07:03:54;;;;;;;210.77;52.58;;;1.40;99.90;;;;;;5054414;28;20024;-82
2020/12/13 07:06:24;;;;;;;195.20;49.03;;;1.40;99.90;;;;;;5054461;28;20343;-82
2020/12/13 07:08:57;;;;;;;200.55;52.15;;;1.40;99.90;;;;;;5054117;28;20071;-82
2020/12/13 07:11:25;;;;;;;220.27;50.83;;;1.40;99.90;;;;;;5053866;28;20020;-83
2020/12/13 07:13:52;;;;;;;217.93;53.20;;;1.40;99.90;;;;;;5053730;28;20021;-82
2020/12/13 07:16:28;;;;;;;171.95;45.08;;;1.40;99.90;;;;;;5053870;28;20021;-81
2020/12/13 07:19:01;;;;;;;175.43;44.65;;;1.40;99.90;;;;;;5053701;28;20482;-81
2020/12/13 07:21:27;;;;;;;;;;;1.40;99.90;;;;;;5054230;28;20104;-82
2020/12/13 07:23:52;;;;;;;182.35;46.58;;;1.40;99.90;;;;;;5054124;28;19940;-82
2020/12/13 07:26:19;;;;;;;165.55;45.78;;;1.40;99.90;;;;;;5035808;28;20873;-81
2020/12/13 07:28:46;;;;;;;189.63;48.42;;;1.40;99.90;;;;;;5053642;28;20096;-82
2020/12/13 07:31:14;;;;;;;175.07;48.03;;;1.40;99.90;;;;;;5053739;28;20471;-83
2020/12/13 07:33:40;;;;;;;188.63;47.20;;;1.40;99.90;;;;;;5047041;28;20036;-82
2020/12/13 07:36:11;;;;;;;161.90;45.78;;;1.40;99.90;;;;;;5044730;28;20024;-81
2020/12/13 07:38:41;;;;;;;156.45;43.58;;;1.40;99.90;;;;;;5045818;28;20025;-82
2020/12/13 07:41:17;;;;;;;194.35;49.53;;;1.40;99.90;;;;;;5049581;28;20364;-82
2020/12/13 07:43:55;;;;;;;165.75;46.58;;;1.40;99.90;;;;;;5033654;28;20017;-83
2020/12/13 07:46:22;;;;;;;168.55;42.85;;;1.40;99.90;;;;;;5041955;28;20029;-82
2020/12/13 07:48:58;;;;;;;161.77;45.45;;;1.40;99.90;;;;;;5033348;28;20049;-83
2020/12/13 07:51:23;;;;;;;181.73;48.25;;;1.40;99.90;;;;;;5047635;28;20025;-82
2020/12/13 07:53:52;;;;;;;150.57;43.50;;;1.40;99.90;;;;;;5032707;28;20387;-82
2020/12/13 07:56:26;;;;;;;170.38;46.60;;;1.40;99.90;;;;;;5033618;28;20115;-80
2020/12/13 07:59:10;;;;;;;154.63;43.33;;;1.40;99.90;;;;;;5042907;28;20152;-82
2020/12/13 08:01:36;;;;;;;142.02;41.03;;;1.40;99.90;;;;;;5042940;28;20021;-82
2020/12/13 08:04:02;;;;;;;175.02;45.30;;;1.40;99.90;;;;;;5042466;28;20037;-81
2020/12/13 08:06:28;;;;;;;154.55;43.85;;;1.40;99.90;;;;;;5035021;28;20029;-82
2020/12/13 08:08:54;;;;;;;165.27;44.55;;;1.40;99.90;;;;;;5044425;28;20033;-82
2020/12/13 08:11:21;;;;;;;182.77;48.85;;;1.40;99.90;;;;;;5042233;28;20061;-83
2020/12/13 08:13:48;;;;;;;178.23;45.95;;;1.40;99.90;;;;;;5044937;28;20009;-82
2020/12/13 08:16:15;;;;;;;130.90;40.28;;;1.40;99.90;;;;;;5042743;28;20058;-83
2020/12/13 08:18:46;;;;;;;168.15;48.40;;;1.40;99.90;;;;;;5041739;28;20096;-83
2020/12/13 08:21:21;;;;;;;146.60;42.22;;;1.40;99.90;;;;;;5043432;28;20017;-83
2020/12/13 08:23:48;;;;;;;128.15;38.38;;;1.40;99.90;;;;;;5044695;28;20029;-83
2020/12/13 08:26:15;;;;;;;146.18;42.38;;;1.40;99.90;;;;;;5033941;28;20049;-83
2020/12/13 08:28:42;;;;;;;137.55;41.53;;;1.40;99.90;;;;;;5041509;28;20513;-81
2020/12/13 08:31:13;;;;;;;130.45;41.78;;;1.40;99.90;;;;;;5043830;28;20109;-82
2020/12/13 08:33:41;;;;;;;118.20;37.33;;;1.40;99.90;;;;;;5041854;28;20376;-83
2020/12/13 08:36:17;;;;;;;123.10;36.58;;;1.40;99.90;;;;;;5047869;28;20104;-84
2020/12/13 08:38:43;;;;;;;111.07;37.65;;;1.50;99.90;;;;;;5054347;28;20025;-83
2020/12/13 08:41:12;;;;;;;124.10;40.35;;;1.50;99.90;;;;;;5035725;28;20483;-83
2020/12/13 08:43:38;;;;;;;113.97;40.40;;;1.50;99.90;;;;;;5053182;28;20156;-82
2020/12/13 08:46:04;;;;;;;152.32;45.70;;;1.40;99.90;;;;;;5053061;28;20026;-85
2020/12/13 08:48:32;;;;;;;119.57;39.50;;;1.50;99.90;;;;;;5036089;28;20029;-84
2020/12/13 08:51:08;;;;;;;138.05;43.58;;;1.50;99.90;;;;;;5035127;28;20036;-85
2020/12/13 08:53:35;;;;;;;118.97;36.72;;;1.50;99.90;;;;;;5053244;28;20099;-84
2020/12/13 08:56:06;;;;;;;114.82;34.60;;;1.50;99.90;;;;;;5036020;28;20021;-83
2020/12/13 08:59:00;;;;;;;145.70;39.90;;;1.40;99.90;;;;;;5035432;28;20078;-86
2020/12/13 09:01:32;;;;;;;126.05;38.20;;;1.40;99.90;;;;;;5055370;28;20025;-85
2020/12/13 09:03:58;;;;;;;103.47;32.92;;;1.40;99.90;;;;;;5056740;28;20339;-85
2020/12/13 09:06:28;;;;;;;97.20;32.88;;;1.40;99.90;;;;;;5038703;28;20232;-88
2020/12/13 09:08:55;;;;;;;115.50;35.75;;;1.40;99.90;;;;;;5039724;28;20120;-84
2020/12/13 09:11:31;;;;;;;115.28;36.85;;;1.40;99.90;;;;;;5057672;28;20084;-84
2020/12/13 09:13:56;;;;;;;114.95;37.65;;;1.40;99.90;;;;;;5059322;28;20056;-84
2020/12/13 09:16:30;;;;;;;109.88;32.22;;;1.40;99.90;;;;;;5059698;28;20022;-85
2020/12/13 09:19:12;;;;;;;103.07;33.20;;;1.50;99.90;;;;;;5058744;28;20056;-86
2020/12/13 09:21:45;;;;;;;112.85;34.00;;;1.50;99.90;;;;;;5058831;28;20048;-83
2020/12/13 09:24:15;;;;;;;88.03;31.45;;;1.50;99.90;;;;;;5057720;28;20029;-83
2020/12/13 09:26:41;;;;;;;112.13;35.38;;;1.50;99.90;;;;;;5058214;28;20028;-85
2020/12/13 09:29:06;;;;;;;78.88;27.30;;;1.50;99.90;;;;;;5056071;28;20585;-85
2020/12/13 09:31:32;;;;;;;85.68;29.30;;;1.50;99.90;;;;;;5038058;28;20025;-84
2020/12/13 09:34:01;;;;;;;100.45;32.58;;;1.40;99.90;;;;;;5056269;28;20352;-85
2020/12/13 09:36:26;;;;;;;102.43;32.33;;;1.50;99.90;;;;;;5042304;28;20030;-86
2020/12/13 09:38:52;;;;;;;93.68;32.20;;;1.50;99.90;;;;;;5063068;28;20025;-84
2020/12/13 09:41:20;;;;;;;85.65;27.27;;;1.40;99.90;;;;;;5056005;28;20471;-84
2020/12/13 09:43:45;;;;;;;81.30;27.90;;;1.40;99.90;;;;;;5056017;28;20414;-85
2020/12/13 09:46:11;;;;;;;92.13;31.23;;;1.40;99.90;;;;;;5055612;28;20025;-85
2020/12/13 09:48:37;;;;;;;78.57;28.27;;;1.40;99.90;;;;;;5055533;28;20343;-83
2020/12/13 09:51:03;;;;;;;101.43;35.65;;;1.40;99.90;;;;;;5055289;28;20033;-82
2020/12/13 09:53:28;;;;;;;87.72;30.70;;;1.40;99.90;;;;;;5055282;28;20403;-86
2020/12/13 09:55:54;;;;;;;76.78;28.35;;;1.40;99.90;;;;;;5055501;28;20025;-86
2020/12/13 09:58:20;;;;;;;78.28;26.85;;;1.40;99.90;;;;;;5055570;28;20025;-87
2020/12/13 10:00:45;;;;;;;79.90;27.58;;;1.40;99.90;;;;;;5056429;28;20538;-85
2020/12/13 10:03:11;;;;;;;76.22;27.83;;;1.40;99.90;;;;;;5037664;28;20498;-86
2020/12/13 10:05:55;;;;;;;89.57;30.63;;;1.40;99.90;;;;;;5055258;28;20025;-87
2020/12/13 10:11:05;;;;;;;69.72;25.10;;;1.40;99.90;;;;;;5055318;28;20391;-85
2020/12/13 10:13:31;;;;;;;111.55;33.97;;;1.40;99.90;;;;;;5055538;28;20021;-86
2020/12/13 10:15:56;;;;;;;83.35;29.23;;;1.40;99.90;;;;;;5055804;28;20025;-88
2020/12/13 10:18:22;;;;;;;102.55;34.28;;;1.40;99.90;;;;;;5055040;28;20029;-85
2020/12/13 10:20:50;;;;;;;87.00;30.92;;;1.40;99.90;;;;;;5054997;28;20371;-83
2020/12/13 10:23:16;;;;;;;87.95;31.08;;;1.40;99.90;;;;;;5054850;28;20071;-83
2020/12/13 10:25:48;;;;;;;100.75;35.10;;;1.40;99.90;;;;;;5054807;28;20430;-83
2020/12/13 10:28:13;;;;;;;97.80;34.05;;;1.40;99.90;;;;;;5036982;28;20029;-85
2020/12/13 10:30:39;;;;;;;101.80;34.78;;;1.40;99.90;;;;;;5037001;28;20025;-83
2020/12/13 10:33:04;;;;;;;97.18;31.75;;;1.40;99.90;;;;;;5056453;28;20056;-84
2020/12/13 10:35:30;;;;;;;69.93;27.15;;;1.40;99.90;;;;;;5054695;28;20426;-85
2020/12/13 10:37:56;;;;;;;98.40;35.22;;;1.30;99.90;;;;;;5055095;28;20027;-83
2020/12/13 10:40:21;;;;;;;90.53;35.17;;;1.40;99.90;;;;;;5055001;28;20021;-82
2020/12/13 10:42:47;;;;;;;95.55;33.72;;;1.30;99.90;;;;;;5039406;28;20025;-83
2020/12/13 10:45:13;;;;;;;96.05;33.38;;;1.30;99.90;;;;;;5054893;28;20067;-81
2020/12/13 10:47:38;;;;;;;100.40;36.40;;;1.30;99.90;;;;;;5053723;28;20024;-82
2020/12/13 10:50:04;;;;;;;102.25;34.13;;;1.40;99.90;;;;;;5053347;28;20025;-83
2020/12/13 10:52:30;;;;;;;95.72;33.15;;;1.40;99.90;;;;;;5053377;28;20024;-83
2020/12/13 10:54:55;;;;;;;96.38;33.05;;;1.40;99.90;;;;;;5053398;28;20029;-82
2020/12/13 10:57:25;;;;;;;85.13;32.50;;;1.40;99.90;;;;;;5053865;28;20049;-82
2020/12/13 10:59:50;;;;;;;87.18;33.03;;;1.40;99.90;;;;;;5053803;28;20017;-82
2020/12/13 11:02:16;;;;;;;87.60;31.63;;;1.30;99.90;;;;;;5053430;28;20029;-81
2020/12/13 11:04:42;;;;;;;83.20;29.70;;;1.30;99.90;;;;;;5053823;28;20028;-82
2020/12/13 11:07:08;;;;;;;96.82;32.35;;;1.30;99.90;;;;;;5053912;28;20043;-83
2020/12/13 11:09:34;;;;;;;99.95;32.20;;;1.20;99.90;;;;;;5053495;28;20021;-83
2020/12/13 11:12:00;;;;;;;117.40;38.13;;;1.30;99.90;;;;;;5053449;28;20087;-83
2020/12/13 11:14:25;;;;;;;102.53;33.78;;;1.20;99.90;;;;;;5054116;28;20032;-82
2020/12/13 11:16:51;;;;;;;112.60;39.25;;;1.20;99.90;;;;;;5055496;28;20025;-82
2020/12/13 11:19:17;;;;;;;101.82;37.13;;;1.20;99.90;;;;;;5055448;28;20096;-82
2020/12/13 11:21:46;;;;;;;103.55;35.75;;;1.20;99.90;;;;;;5054797;28;20055;-82
2020/12/13 11:24:12;;;;;;;111.63;37.20;;;1.20;99.90;;;;;;5051761;28;20063;-81
2020/12/13 11:26:38;;;;;;;103.30;35.03;;;1.10;99.90;;;;;;5052970;28;20048;-83
2020/12/13 11:29:03;;;;;;;110.00;37.63;;;1.10;99.90;;;;;;5053005;28;20147;-81
2020/12/13 11:31:29;;;;;;;118.80;38.28;;;1.10;99.90;;;;;;5053499;28;20052;-82
2020/12/13 11:33:55;;;;;;;121.93;37.25;;;1.10;99.90;;;;;;5053161;28;20025;-83
2020/12/13 11:36:26;;;;;;;107.78;37.42;;;1.10;99.90;;;;;;5055496;28;20479;-83
2020/12/13 11:38:51;;;;;;;102.57;34.97;;;1.10;99.90;;;;;;5057167;28;20017;-81
2020/12/13 11:41:17;;;;;;;119.78;40.92;;;1.10;99.90;;;;;;5035633;28;20055;-84
2020/12/13 11:43:43;;;;;;;111.28;39.63;;;1.10;99.90;;;;;;5057489;28;20033;-83
2020/12/13 11:46:08;;;;;;;138.05;42.97;;;1.10;99.90;;;;;;5037330;28;20077;-86
2020/12/13 11:48:34;;;;;;;114.40;38.95;;;1.20;99.90;;;;;;5053048;28;20387;-84
2020/12/13 11:51:00;;;;;;;111.28;36.83;;;1.20;99.90;;;;;;5052791;28;20032;-84
2020/12/13 11:53:25;;;;;;;130.27;40.20;;;1.10;99.90;;;;;;5035392;28;20032;-84
2020/12/13 11:55:55;;;;;;;120.10;38.25;;;1.20;99.90;;;;;;5053118;28;20078;-83
2020/12/13 11:58:20;;;;;;;91.32;32.85;;;1.10;99.90;;;;;;5052766;28;20044;-83
2020/12/13 12:00:46;;;;;;;120.05;39.53;;;1.20;99.90;;;;;;5053183;28;20387;-84
2020/12/13 12:03:11;;;;;;;106.63;36.55;;;1.20;99.90;;;;;;5034854;28;20033;-84
2020/12/13 12:05:37;;;;;;;86.57;30.63;;;1.20;99.90;;;;;;5052925;28;20041;-84
2020/12/13 12:08:03;;;;;;;107.30;33.78;;;1.20;99.90;;;;;;5035487;28;20757;-84
2020/12/13 12:10:28;;;;;;;121.10;39.65;;;1.20;99.90;;;;;;5035571;28;20037;-84
2020/12/13 12:12:54;;;;;;;118.30;37.72;;;1.20;99.90;;;;;;5053703;28;20064;-84
2020/12/13 12:15:20;;;;;;;86.32;31.35;;;1.10;99.90;;;;;;5052726;28;20518;-83
2020/12/13 12:17:46;;;;;;;93.60;32.63;;;1.10;99.90;;;;;;5053034;28;20100;-83
2020/12/13 12:20:16;;;;;;;114.88;35.65;;;1.10;99.90;;;;;;5035396;28;20021;-83
2020/12/13 12:22:44;;;;;;;113.43;34.90;;;1.20;99.90;;;;;;5053569;28;20061;-83
2020/12/13 12:25:10;;;;;;;121.88;38.15;;;1.10;99.90;;;;;;5035027;28;20039;-83
2020/12/13 12:27:36;;;;;;;88.97;29.88;;;1.10;99.90;;;;;;5053782;28;20025;-83
2020/12/13 12:30:05;;;;;;;102.25;33.28;;;1.10;99.90;;;;;;5054618;28;20061;-83
2020/12/13 12:32:31;;;;;;;99.60;34.92;;;1.10;99.90;;;;;;5060184;28;20413;-83
2020/12/13 12:34:57;;;;;;;98.65;34.30;;;1.10;99.90;;;;;;5065116;28;20043;-84
2020/12/13 12:37:24;;;;;;;108.63;35.55;;;1.10;99.90;;;;;;5067672;28;20021;-83
2020/12/13 12:39:53;;;;;;;104.72;34.72;;;1.10;99.90;;;;;;5068336;28;20041;-83
2020/12/13 12:42:19;;;;;;;113.07;37.65;;;1.10;99.90;;;;;;5056319;28;20092;-85